sensor_id;sensor_type;location;lat;lon;timestamp;pressure;altitude;pressure_sealevel;temperature;humidity
25944;BME280;13742;49.306;8.636;2023-03-09T00:00:17;98053.34;;;9.39;100.00
25944;BME280;13742;49.306;8.636;2023-03-09T00:01:17;98050.00;;;9.40;100.00
25944;BME280;13742;49.306;8.636;2023-03-09T00:02:14;98055.41;;;9.41;100.00
25944;BME280;13742;49.306;8.636;2023-03-09T00:03:16;98064.39;;;9.43;100.00
25944;BME280;13742;49.306;8.636;2023-03-09T00:04:14;98060.05;;;9.45;100.00
25944;BME280;13742;49.306;8.636;2023-03-09T00:05:16;98113.27;;;9.49;100.00
25944;BME280;13742;49.306;8.636;2023-03-09T00:06:14;98072.07;;;9.59;100.00
25944;BME280;13742;49.306;8.636;2023-03-09T00:07:14;98079.88;;;9.69;100.00
25944;BME280;13742;49.306;8.636;2023-03-09T00:08:14;98072.03;;;9.86;100.00
25944;BME280;13742;49.306;8.636;2023-03-09T00:09:14;98060.50;;;9.84;100.00
25944;BME280;13742;49.306;8.636;2023-03-09T00:10:14;98062.91;;;9.84;100.00
25944;BME280;13742;49.306;8.636;2023-03-09T00:11:14;98043.91;;;9.85;100.00
25944;BME280;13742;49.306;8.636;2023-03-09T00:12:14;98019.20;;;9.83;100.00
25944;BME280;13742;49.306;8.636;2023-03-09T00:13:14;98015.45;;;9.84;100.00
25944;BME280;13742;49.306;8.636;2023-03-09T00:14:14;98003.48;;;9.84;100.00
25944;BME280;13742;49.306;8.636;2023-03-09T00:15:14;97994.75;;;9.84;100.00
25944;BME280;13742;49.306;8.636;2023-03-09T00:16:15;97981.06;;;9.84;100.00
25944;BME280;13742;49.306;8.636;2023-03-09T00:17:14;97969.73;;;9.81;100.00
25944;BME280;13742;49.306;8.636;2023-03-09T00:18:14;97967.06;;;9.80;100.00
25944;BME280;13742;49.306;8.636;2023-03-09T00:19:20;97968.05;;;9.80;100.00
25944;BME280;13742;49.306;8.636;2023-03-09T00:20:17;97952.04;;;9.81;100.00
25944;BME280;13742;49.306;8.636;2023-03-09T00:21:31;97961.05;;;9.82;100.00
25944;BME280;13742;49.306;8.636;2023-03-09T00:22:14;97954.73;;;9.83;100.00
25944;BME280;13742;49.306;8.636;2023-03-09T00:23:18;97957.11;;;9.81;100.00
25944;BME280;13742;49.306;8.636;2023-03-09T00:24:15;97953.26;;;9.81;100.00
25944;BME280;13742;49.306;8.636;2023-03-09T00:25:14;97958.67;;;9.82;100.00
25944;BME280;13742;49.306;8.636;2023-03-09T00:26:14;97963.50;;;9.83;100.00
25944;BME280;13742;49.306;8.636;2023-03-09T00:27:14;97962.02;;;9.83;100.00
25944;BME280;13742;49.306;8.636;2023-03-09T00:28:14;97962.97;;;9.86;100.00
25944;BME280;13742;49.306;8.636;2023-03-09T00:29:14;97971.11;;;9.86;100.00
25944;BME280;13742;49.306;8.636;2023-03-09T00:30:14;97978.83;;;9.87;100.00
25944;BME280;13742;49.306;8.636;2023-03-09T00:31:14;97992.86;;;9.90;100.00
25944;BME280;13742;49.306;8.636;2023-03-09T00:32:14;97999.14;;;9.95;100.00
25944;BME280;13742;49.306;8.636;2023-03-09T00:33:14;97997.32;;;9.94;100.00
25944;BME280;13742;49.306;8.636;2023-03-09T00:34:15;97993.83;;;9.97;100.00
25944;BME280;13742;49.306;8.636;2023-03-09T00:35:14;98001.78;;;9.98;100.00
25944;BME280;13742;49.306;8.636;2023-03-09T00:36:14;98007.45;;;10.01;100.00
25944;BME280;13742;49.306;8.636;2023-03-09T00:37:14;98014.13;;;10.01;100.00
25944;BME280;13742;49.306;8.636;2023-03-09T00:38:14;98037.77;;;10.01;100.00
25944;BME280;13742;49.306;8.636;2023-03-09T00:39:15;98036.91;;;10.00;100.00
25944;BME280;13742;49.306;8.636;2023-03-09T00:40:14;98033.86;;;9.99;100.00
25944;BME280;13742;49.306;8.636;2023-03-09T00:41:14;98042.02;;;10.00;100.00
25944;BME280;13742;49.306;8.636;2023-03-09T00:42:14;98036.91;;;10.00;100.00
25944;BME280;13742;49.306;8.636;2023-03-09T00:43:14;98043.34;;;10.00;100.00
25944;BME280;13742;49.306;8.636;2023-03-09T00:44:14;98052.30;;;10.03;100.00
25944;BME280;13742;49.306;8.636;2023-03-09T00:45:14;98058.81;;;10.07;100.00
25944;BME280;13742;49.306;8.636;2023-03-09T00:46:14;98053.61;;;10.09;100.00
25944;BME280;13742;49.306;8.636;2023-03-09T00:47:14;98068.88;;;10.06;100.00
25944;BME280;13742;49.306;8.636;2023-03-09T00:48:14;98062.00;;;10.06;100.00
25944;BME280;13742;49.306;8.636;2023-03-09T00:49:15;98055.50;;;10.07;100.00
25944;BME280;13742;49.306;8.636;2023-03-09T00:50:14;98057.18;;;10.06;100.00
25944;BME280;13742;49.306;8.636;2023-03-09T00:51:14;98062.28;;;10.05;100.00
25944;BME280;13742;49.306;8.636;2023-03-09T00:52:14;98061.81;;;10.04;100.00
25944;BME280;13742;49.306;8.636;2023-03-09T00:53:14;98063.70;;;10.02;100.00
25944;BME280;13742;49.306;8.636;2023-03-09T00:54:14;98062.34;;;10.01;100.00
25944;BME280;13742;49.306;8.636;2023-03-09T00:55:14;98067.00;;;9.99;100.00
25944;BME280;13742;49.306;8.636;2023-03-09T00:56:15;98066.91;;;9.97;100.00
25944;BME280;13742;49.306;8.636;2023-03-09T00:57:14;98070.20;;;9.97;100.00
25944;BME280;13742;49.306;8.636;2023-03-09T00:58:14;98059.05;;;9.98;100.00
25944;BME280;13742;49.306;8.636;2023-03-09T00:59:14;98059.58;;;9.99;100.00
25944;BME280;13742;49.306;8.636;2023-03-09T01:00:14;98064.16;;;10.00;100.00
25944;BME280;13742;49.306;8.636;2023-03-09T01:01:15;98064.04;;;10.00;100.00
25944;BME280;13742;49.306;8.636;2023-03-09T01:02:14;98061.34;;;10.01;100.00
25944;BME280;13742;49.306;8.636;2023-03-09T01:03:14;98053.40;;;10.04;100.00
25944;BME280;13742;49.306;8.636;2023-03-09T01:04:14;98059.11;;;10.05;100.00
25944;BME280;13742;49.306;8.636;2023-03-09T01:05:14;98060.48;;;10.04;100.00
25944;BME280;13742;49.306;8.636;2023-03-09T01:06:14;98064.36;;;10.02;100.00
25944;BME280;13742;49.306;8.636;2023-03-09T01:07:14;98064.75;;;10.02;100.00
25944;BME280;13742;49.306;8.636;2023-03-09T01:08:14;98060.74;;;10.00;100.00
25944;BME280;13742;49.306;8.636;2023-03-09T01:09:14;98067.98;;;9.99;100.00
25944;BME280;13742;49.306;8.636;2023-03-09T01:10:14;98071.89;;;9.98;100.00
25944;BME280;13742;49.306;8.636;2023-03-09T01:11:15;98075.21;;;9.97;100.00
25944;BME280;13742;49.306;8.636;2023-03-09T01:12:14;98076.66;;;9.96;100.00
25944;BME280;13742;49.306;8.636;2023-03-09T01:13:14;98079.84;;;9.94;100.00
25944;BME280;13742;49.306;8.636;2023-03-09T01:14:14;98084.08;;;9.94;100.00
25944;BME280;13742;49.306;8.636;2023-03-09T01:15:14;98087.50;;;9.93;100.00
25944;BME280;13742;49.306;8.636;2023-03-09T01:16:14;98083.52;;;9.91;100.00
25944;BME280;13742;49.306;8.636;2023-03-09T01:17:14;98085.66;;;9.90;100.00
25944;BME280;13742;49.306;8.636;2023-03-09T01:18:14;98082.55;;;9.89;100.00
25944;BME280;13742;49.306;8.636;2023-03-09T01:19:14;98082.77;;;9.88;100.00
25944;BME280;13742;49.306;8.636;2023-03-09T01:20:14;98083.48;;;9.88;100.00
25944;BME280;13742;49.306;8.636;2023-03-09T01:21:14;98085.08;;;9.88;100.00
25944;BME280;13742;49.306;8.636;2023-03-09T01:22:14;98078.16;;;9.86;100.00
25944;BME280;13742;49.306;8.636;2023-03-09T01:23:14;98081.42;;;9.85;100.00
25944;BME280;13742;49.306;8.636;2023-03-09T01:24:14;98074.06;;;9.85;100.00
25944;BME280;13742;49.306;8.636;2023-03-09T01:25:14;98072.47;;;9.84;100.00
25944;BME280;13742;49.306;8.636;2023-03-09T01:26:14;98075.05;;;9.85;100.00
25944;BME280;13742;49.306;8.636;2023-03-09T01:27:14;98073.84;;;9.84;100.00
25944;BME280;13742;49.306;8.636;2023-03-09T01:28:14;98070.81;;;9.86;100.00
25944;BME280;13742;49.306;8.636;2023-03-09T01:29:14;98073.52;;;9.86;100.00
25944;BME280;13742;49.306;8.636;2023-03-09T01:30:14;98073.45;;;9.86;100.00
25944;BME280;13742;49.306;8.636;2023-03-09T01:31:14;98075.34;;;9.90;100.00
25944;BME280;13742;49.306;8.636;2023-03-09T01:32:14;98083.02;;;9.90;100.00
25944;BME280;13742;49.306;8.636;2023-03-09T01:33:14;98075.70;;;9.90;100.00
25944;BME280;13742;49.306;8.636;2023-03-09T01:34:14;98075.05;;;9.91;100.00
25944;BME280;13742;49.306;8.636;2023-03-09T01:35:14;98074.45;;;9.90;100.00
25944;BME280;13742;49.306;8.636;2023-03-09T01:36:15;98069.42;;;9.89;100.00
25944;BME280;13742;49.306;8.636;2023-03-09T01:37:14;98066.72;;;9.89;100.00
25944;BME280;13742;49.306;8.636;2023-03-09T01:38:14;98068.70;;;9.89;100.00
25944;BME280;13742;49.306;8.636;2023-03-09T01:39:14;98070.78;;;9.89;100.00
25944;BME280;13742;49.306;8.636;2023-03-09T01:40:18;98066.77;;;9.90;100.00
25944;BME280;13742;49.306;8.636;2023-03-09T01:41:14;98061.12;;;9.89;100.00
25944;BME280;13742;49.306;8.636;2023-03-09T01:42:14;98063.81;;;9.88;100.00
25944;BME280;13742;49.306;8.636;2023-03-09T01:44:14;98061.22;;;9.90;100.00
25944;BME280;13742;49.306;8.636;2023-03-09T01:47:14;98062.75;;;9.90;100.00
25944;BME280;13742;49.306;8.636;2023-03-09T01:48:14;98066.50;;;9.90;100.00
25944;BME280;13742;49.306;8.636;2023-03-09T01:50:14;98066.49;;;9.89;100.00
25944;BME280;13742;49.306;8.636;2023-03-09T01:51:14;98057.48;;;9.88;100.00
25944;BME280;13742;49.306;8.636;2023-03-09T01:52:35;98055.23;;;9.90;100.00
25944;BME280;13742;49.306;8.636;2023-03-09T01:53:14;98056.50;;;9.88;100.00
25944;BME280;13742;49.306;8.636;2023-03-09T01:54:20;98056.72;;;9.88;100.00
25944;BME280;13742;49.306;8.636;2023-03-09T01:56:14;98052.09;;;9.90;100.00
25944;BME280;13742;49.306;8.636;2023-03-09T01:58:17;98047.93;;;9.89;100.00
25944;BME280;13742;49.306;8.636;2023-03-09T01:59:14;98049.35;;;9.89;100.00
25944;BME280;13742;49.306;8.636;2023-03-09T02:00:15;98054.84;;;9.91;100.00
25944;BME280;13742;49.306;8.636;2023-03-09T02:01:14;98054.14;;;9.93;100.00
25944;BME280;13742;49.306;8.636;2023-03-09T02:02:14;98050.70;;;9.95;100.00
25944;BME280;13742;49.306;8.636;2023-03-09T02:04:16;98052.36;;;9.96;100.00
25944;BME280;13742;49.306;8.636;2023-03-09T02:05:16;98049.53;;;9.97;100.00
25944;BME280;13742;49.306;8.636;2023-03-09T02:06:15;98046.97;;;9.97;100.00
25944;BME280;13742;49.306;8.636;2023-03-09T02:07:14;98048.33;;;9.98;100.00
25944;BME280;13742;49.306;8.636;2023-03-09T02:08:14;98049.83;;;9.97;100.00
25944;BME280;13742;49.306;8.636;2023-03-09T02:10:18;98042.45;;;9.98;100.00
25944;BME280;13742;49.306;8.636;2023-03-09T02:11:14;98045.77;;;9.96;100.00
25944;BME280;13742;49.306;8.636;2023-03-09T02:12:16;98050.76;;;9.97;100.00
25944;BME280;13742;49.306;8.636;2023-03-09T02:13:15;98044.06;;;10.03;100.00
25944;BME280;13742;49.306;8.636;2023-03-09T02:14:14;98045.23;;;10.02;100.00
25944;BME280;13742;49.306;8.636;2023-03-09T02:15:14;98044.89;;;10.04;100.00
25944;BME280;13742;49.306;8.636;2023-03-09T02:16:14;98047.86;;;10.07;100.00
25944;BME280;13742;49.306;8.636;2023-03-09T02:17:14;98044.26;;;10.10;100.00
25944;BME280;13742;49.306;8.636;2023-03-09T02:18:14;98043.01;;;10.10;100.00
25944;BME280;13742;49.306;8.636;2023-03-09T02:19:18;98042.86;;;10.12;100.00
25944;BME280;13742;49.306;8.636;2023-03-09T02:21:23;98047.42;;;10.13;100.00
25944;BME280;13742;49.306;8.636;2023-03-09T02:22:14;98052.92;;;10.13;100.00
25944;BME280;13742;49.306;8.636;2023-03-09T02:23:18;98050.92;;;10.13;100.00
25944;BME280;13742;49.306;8.636;2023-03-09T02:25:17;98056.89;;;10.17;100.00
25944;BME280;13742;49.306;8.636;2023-03-09T02:26:26;98057.09;;;10.18;100.00
25944;BME280;13742;49.306;8.636;2023-03-09T02:28:14;98064.78;;;10.28;100.00
25944;BME280;13742;49.306;8.636;2023-03-09T02:29:14;98071.55;;;10.28;100.00
25944;BME280;13742;49.306;8.636;2023-03-09T02:30:14;98078.92;;;10.27;100.00
25944;BME280;13742;49.306;8.636;2023-03-09T02:31:14;98085.09;;;10.26;100.00
25944;BME280;13742;49.306;8.636;2023-03-09T02:32:14;98084.59;;;10.30;100.00
25944;BME280;13742;49.306;8.636;2023-03-09T02:34:14;98104.00;;;10.31;100.00
25944;BME280;13742;49.306;8.636;2023-03-09T02:35:14;98106.58;;;10.31;100.00
25944;BME280;13742;49.306;8.636;2023-03-09T02:36:14;98114.43;;;10.32;100.00
25944;BME280;13742;49.306;8.636;2023-03-09T02:38:14;98119.31;;;10.32;100.00
25944;BME280;13742;49.306;8.636;2023-03-09T02:39:16;98117.89;;;10.32;100.00
25944;BME280;13742;49.306;8.636;2023-03-09T02:40:15;98116.37;;;10.31;100.00
25944;BME280;13742;49.306;8.636;2023-03-09T02:41:14;98121.00;;;10.29;100.00
25944;BME280;13742;49.306;8.636;2023-03-09T02:42:14;98125.06;;;10.30;100.00
25944;BME280;13742;49.306;8.636;2023-03-09T02:43:14;98137.47;;;10.31;100.00
25944;BME280;13742;49.306;8.636;2023-03-09T02:44:14;98132.53;;;10.31;100.00
25944;BME280;13742;49.306;8.636;2023-03-09T02:45:15;98134.58;;;10.29;100.00
25944;BME280;13742;49.306;8.636;2023-03-09T02:46:14;98145.59;;;10.28;100.00
25944;BME280;13742;49.306;8.636;2023-03-09T02:47:17;98159.47;;;10.30;100.00
25944;BME280;13742;49.306;8.636;2023-03-09T02:48:14;98163.88;;;10.29;100.00
25944;BME280;13742;49.306;8.636;2023-03-09T02:49:14;98170.16;;;10.28;100.00
25944;BME280;13742;49.306;8.636;2023-03-09T02:50:14;98172.80;;;10.27;100.00
25944;BME280;13742;49.306;8.636;2023-03-09T02:51:14;98174.96;;;10.26;100.00
25944;BME280;13742;49.306;8.636;2023-03-09T02:52:14;98173.48;;;10.24;100.00
25944;BME280;13742;49.306;8.636;2023-03-09T02:53:14;98181.41;;;10.24;100.00
25944;BME280;13742;49.306;8.636;2023-03-09T02:54:14;98174.17;;;10.23;100.00
25944;BME280;13742;49.306;8.636;2023-03-09T02:55:14;98180.27;;;10.23;100.00
25944;BME280;13742;49.306;8.636;2023-03-09T02:56:14;98187.66;;;10.21;100.00
25944;BME280;13742;49.306;8.636;2023-03-09T02:57:14;98181.95;;;10.20;100.00
25944;BME280;13742;49.306;8.636;2023-03-09T02:58:14;98186.25;;;10.18;100.00
25944;BME280;13742;49.306;8.636;2023-03-09T02:59:14;98190.77;;;10.18;100.00
25944;BME280;13742;49.306;8.636;2023-03-09T03:00:14;98192.25;;;10.18;100.00
25944;BME280;13742;49.306;8.636;2023-03-09T03:01:14;98194.63;;;10.16;100.00
25944;BME280;13742;49.306;8.636;2023-03-09T03:02:14;98193.12;;;10.14;100.00
25944;BME280;13742;49.306;8.636;2023-03-09T03:03:14;98201.48;;;10.13;100.00
25944;BME280;13742;49.306;8.636;2023-03-09T03:04:14;98207.36;;;10.11;100.00
25944;BME280;13742;49.306;8.636;2023-03-09T03:05:14;98203.55;;;10.09;100.00
25944;BME280;13742;49.306;8.636;2023-03-09T03:06:14;98209.53;;;10.08;100.00
25944;BME280;13742;49.306;8.636;2023-03-09T03:07:14;98217.41;;;10.07;100.00
25944;BME280;13742;49.306;8.636;2023-03-09T03:08:14;98222.27;;;10.05;100.00
25944;BME280;13742;49.306;8.636;2023-03-09T03:09:14;98229.14;;;10.04;100.00
25944;BME280;13742;49.306;8.636;2023-03-09T03:10:14;98235.05;;;10.02;100.00
25944;BME280;13742;49.306;8.636;2023-03-09T03:11:14;98237.25;;;10.00;100.00
25944;BME280;13742;49.306;8.636;2023-03-09T03:12:14;98237.90;;;9.98;100.00
25944;BME280;13742;49.306;8.636;2023-03-09T03:13:14;98247.74;;;9.97;100.00
25944;BME280;13742;49.306;8.636;2023-03-09T03:14:14;98252.16;;;9.95;100.00
25944;BME280;13742;49.306;8.636;2023-03-09T03:15:14;98250.06;;;9.94;100.00
25944;BME280;13742;49.306;8.636;2023-03-09T03:16:14;98252.59;;;9.93;100.00
25944;BME280;13742;49.306;8.636;2023-03-09T03:17:14;98259.10;;;9.92;100.00
25944;BME280;13742;49.306;8.636;2023-03-09T03:18:14;98259.15;;;9.90;100.00
25944;BME280;13742;49.306;8.636;2023-03-09T03:19:14;98262.89;;;9.89;100.00
25944;BME280;13742;49.306;8.636;2023-03-09T03:20:14;98267.41;;;9.87;100.00
25944;BME280;13742;49.306;8.636;2023-03-09T03:21:14;98266.88;;;9.86;100.00
25944;BME280;13742;49.306;8.636;2023-03-09T03:22:14;98269.36;;;9.85;100.00
25944;BME280;13742;49.306;8.636;2023-03-09T03:23:14;98269.38;;;9.83;100.00
25944;BME280;13742;49.306;8.636;2023-03-09T03:24:14;98273.06;;;9.83;100.00
25944;BME280;13742;49.306;8.636;2023-03-09T03:25:14;98277.86;;;9.80;100.00
25944;BME280;13742;49.306;8.636;2023-03-09T03:26:14;98282.36;;;9.79;100.00
25944;BME280;13742;49.306;8.636;2023-03-09T03:27:14;98282.31;;;9.78;100.00
25944;BME280;13742;49.306;8.636;2023-03-09T03:28:14;98284.13;;;9.77;100.00
25944;BME280;13742;49.306;8.636;2023-03-09T03:29:14;98291.95;;;9.75;100.00
25944;BME280;13742;49.306;8.636;2023-03-09T03:30:14;98292.84;;;9.73;100.00
25944;BME280;13742;49.306;8.636;2023-03-09T03:31:14;98301.14;;;9.72;100.00
25944;BME280;13742;49.306;8.636;2023-03-09T03:32:14;98304.16;;;9.72;100.00
25944;BME280;13742;49.306;8.636;2023-03-09T03:33:14;98306.14;;;9.70;100.00
25944;BME280;13742;49.306;8.636;2023-03-09T03:34:14;98307.37;;;9.68;100.00
25944;BME280;13742;49.306;8.636;2023-03-09T03:35:14;98316.53;;;9.68;100.00
25944;BME280;13742;49.306;8.636;2023-03-09T03:36:14;98323.80;;;9.67;100.00
25944;BME280;13742;49.306;8.636;2023-03-09T03:37:14;98321.67;;;9.66;100.00
25944;BME280;13742;49.306;8.636;2023-03-09T03:38:14;98320.73;;;9.65;100.00
25944;BME280;13742;49.306;8.636;2023-03-09T03:39:14;98316.13;;;9.64;100.00
25944;BME280;13742;49.306;8.636;2023-03-09T03:40:14;98318.05;;;9.62;100.00
25944;BME280;13742;49.306;8.636;2023-03-09T03:41:14;98319.92;;;9.61;100.00
25944;BME280;13742;49.306;8.636;2023-03-09T03:42:14;98323.49;;;9.60;100.00
25944;BME280;13742;49.306;8.636;2023-03-09T03:43:14;98322.30;;;9.59;100.00
25944;BME280;13742;49.306;8.636;2023-03-09T03:44:14;98325.25;;;9.59;100.00
25944;BME280;13742;49.306;8.636;2023-03-09T03:45:14;98325.27;;;9.58;100.00
25944;BME280;13742;49.306;8.636;2023-03-09T03:46:14;98329.61;;;9.57;100.00
25944;BME280;13742;49.306;8.636;2023-03-09T03:47:14;98333.56;;;9.58;100.00
25944;BME280;13742;49.306;8.636;2023-03-09T03:48:14;98334.55;;;9.57;100.00
25944;BME280;13742;49.306;8.636;2023-03-09T03:49:14;98342.62;;;9.57;100.00
25944;BME280;13742;49.306;8.636;2023-03-09T03:50:14;98346.52;;;9.56;100.00
25944;BME280;13742;49.306;8.636;2023-03-09T03:51:14;98348.02;;;9.55;100.00
25944;BME280;13742;49.306;8.636;2023-03-09T03:52:14;98346.42;;;9.54;100.00
25944;BME280;13742;49.306;8.636;2023-03-09T03:53:14;98344.61;;;9.54;100.00
25944;BME280;13742;49.306;8.636;2023-03-09T03:54:14;98350.50;;;9.54;100.00
25944;BME280;13742;49.306;8.636;2023-03-09T03:55:14;98353.09;;;9.53;100.00
25944;BME280;13742;49.306;8.636;2023-03-09T03:56:14;98359.56;;;9.52;100.00
25944;BME280;13742;49.306;8.636;2023-03-09T03:57:14;98358.63;;;9.51;100.00
25944;BME280;13742;49.306;8.636;2023-03-09T03:58:14;98370.54;;;9.51;100.00
25944;BME280;13742;49.306;8.636;2023-03-09T03:59:14;98375.94;;;9.50;100.00
25944;BME280;13742;49.306;8.636;2023-03-09T04:00:14;98381.27;;;9.49;100.00
25944;BME280;13742;49.306;8.636;2023-03-09T04:01:14;98386.09;;;9.50;100.00
25944;BME280;13742;49.306;8.636;2023-03-09T04:02:14;98393.18;;;9.51;100.00
25944;BME280;13742;49.306;8.636;2023-03-09T04:03:14;98394.59;;;9.51;100.00
25944;BME280;13742;49.306;8.636;2023-03-09T04:04:14;98401.75;;;9.51;100.00
25944;BME280;13742;49.306;8.636;2023-03-09T04:05:14;98401.63;;;9.51;100.00
25944;BME280;13742;49.306;8.636;2023-03-09T04:06:14;98407.78;;;9.51;100.00
25944;BME280;13742;49.306;8.636;2023-03-09T04:07:14;98412.28;;;9.51;100.00
25944;BME280;13742;49.306;8.636;2023-03-09T04:08:14;98410.63;;;9.50;100.00
25944;BME280;13742;49.306;8.636;2023-03-09T04:09:14;98419.47;;;9.52;100.00
25944;BME280;13742;49.306;8.636;2023-03-09T04:10:14;98417.55;;;9.52;100.00
25944;BME280;13742;49.306;8.636;2023-03-09T04:11:14;98424.30;;;9.52;100.00
25944;BME280;13742;49.306;8.636;2023-03-09T04:12:14;98429.34;;;9.52;100.00
25944;BME280;13742;49.306;8.636;2023-03-09T04:13:14;98430.73;;;9.52;100.00
25944;BME280;13742;49.306;8.636;2023-03-09T04:14:14;98434.56;;;9.53;100.00
25944;BME280;13742;49.306;8.636;2023-03-09T04:15:14;98436.11;;;9.52;100.00
25944;BME280;13742;49.306;8.636;2023-03-09T04:16:14;98435.94;;;9.52;100.00
25944;BME280;13742;49.306;8.636;2023-03-09T04:17:14;98440.88;;;9.52;100.00
25944;BME280;13742;49.306;8.636;2023-03-09T04:18:14;98446.09;;;9.53;100.00
25944;BME280;13742;49.306;8.636;2023-03-09T04:19:14;98447.48;;;9.53;100.00
25944;BME280;13742;49.306;8.636;2023-03-09T04:20:14;98452.47;;;9.53;100.00
25944;BME280;13742;49.306;8.636;2023-03-09T04:21:14;98454.55;;;9.54;100.00
25944;BME280;13742;49.306;8.636;2023-03-09T04:22:14;98453.45;;;9.53;100.00
25944;BME280;13742;49.306;8.636;2023-03-09T04:23:14;98455.06;;;9.53;100.00
25944;BME280;13742;49.306;8.636;2023-03-09T04:24:14;98457.75;;;9.54;100.00
25944;BME280;13742;49.306;8.636;2023-03-09T04:25:15;98461.59;;;9.53;100.00
25944;BME280;13742;49.306;8.636;2023-03-09T04:26:14;98468.11;;;9.53;100.00
25944;BME280;13742;49.306;8.636;2023-03-09T04:27:14;98468.28;;;9.53;100.00
25944;BME280;13742;49.306;8.636;2023-03-09T04:28:14;98474.59;;;9.53;100.00
25944;BME280;13742;49.306;8.636;2023-03-09T04:29:14;98477.45;;;9.54;100.00
25944;BME280;13742;49.306;8.636;2023-03-09T04:30:14;98482.39;;;9.54;100.00
25944;BME280;13742;49.306;8.636;2023-03-09T04:31:14;98479.20;;;9.56;100.00
25944;BME280;13742;49.306;8.636;2023-03-09T04:32:14;98479.25;;;9.55;100.00
25944;BME280;13742;49.306;8.636;2023-03-09T04:33:14;98489.58;;;9.56;100.00
25944;BME280;13742;49.306;8.636;2023-03-09T04:34:14;98489.19;;;9.56;100.00
25944;BME280;13742;49.306;8.636;2023-03-09T04:35:14;98493.71;;;9.55;100.00
25944;BME280;13742;49.306;8.636;2023-03-09T04:36:14;98490.73;;;9.56;100.00
25944;BME280;13742;49.306;8.636;2023-03-09T04:37:14;98495.29;;;9.56;100.00
25944;BME280;13742;49.306;8.636;2023-03-09T04:38:14;98495.62;;;9.56;100.00
25944;BME280;13742;49.306;8.636;2023-03-09T04:39:14;98495.83;;;9.56;100.00
25944;BME280;13742;49.306;8.636;2023-03-09T04:40:14;98495.34;;;9.56;100.00
25944;BME280;13742;49.306;8.636;2023-03-09T04:41:14;98499.73;;;9.56;100.00
25944;BME280;13742;49.306;8.636;2023-03-09T04:42:14;98498.54;;;9.56;100.00
25944;BME280;13742;49.306;8.636;2023-03-09T04:43:14;98499.14;;;9.56;100.00
25944;BME280;13742;49.306;8.636;2023-03-09T04:44:14;98501.50;;;9.56;100.00
25944;BME280;13742;49.306;8.636;2023-03-09T04:45:14;98501.11;;;9.57;100.00
25944;BME280;13742;49.306;8.636;2023-03-09T04:46:14;98502.94;;;9.57;100.00
25944;BME280;13742;49.306;8.636;2023-03-09T04:47:14;98510.83;;;9.57;100.00
25944;BME280;13742;49.306;8.636;2023-03-09T04:48:14;98511.23;;;9.58;100.00
25944;BME280;13742;49.306;8.636;2023-03-09T04:49:14;98510.84;;;9.57;100.00
25944;BME280;13742;49.306;8.636;2023-03-09T04:50:14;98514.56;;;9.58;100.00
25944;BME280;13742;49.306;8.636;2023-03-09T04:51:14;98515.88;;;9.58;100.00
25944;BME280;13742;49.306;8.636;2023-03-09T04:52:14;98519.45;;;9.57;100.00
25944;BME280;13742;49.306;8.636;2023-03-09T04:53:14;98526.55;;;9.58;100.00
25944;BME280;13742;49.306;8.636;2023-03-09T04:54:14;98526.42;;;9.58;100.00
25944;BME280;13742;49.306;8.636;2023-03-09T04:55:14;98529.67;;;9.59;100.00
25944;BME280;13742;49.306;8.636;2023-03-09T04:56:14;98534.30;;;9.58;100.00
25944;BME280;13742;49.306;8.636;2023-03-09T04:57:14;98538.41;;;9.59;100.00
25944;BME280;13742;49.306;8.636;2023-03-09T04:58:14;98542.75;;;9.59;100.00
25944;BME280;13742;49.306;8.636;2023-03-09T04:59:14;98544.72;;;9.58;100.00
25944;BME280;13742;49.306;8.636;2023-03-09T05:00:14;98549.88;;;9.58;100.00
25944;BME280;13742;49.306;8.636;2023-03-09T05:01:14;98543.24;;;9.59;100.00
25944;BME280;13742;49.306;8.636;2023-03-09T05:02:14;98546.53;;;9.59;100.00
25944;BME280;13742;49.306;8.636;2023-03-09T05:03:14;98555.27;;;9.60;100.00
25944;BME280;13742;49.306;8.636;2023-03-09T05:04:14;98558.06;;;9.60;100.00
25944;BME280;13742;49.306;8.636;2023-03-09T05:05:16;98561.73;;;9.59;100.00
25944;BME280;13742;49.306;8.636;2023-03-09T05:06:14;98561.63;;;9.59;100.00
25944;BME280;13742;49.306;8.636;2023-03-09T05:07:14;98566.74;;;9.59;100.00
25944;BME280;13742;49.306;8.636;2023-03-09T05:08:14;98566.80;;;9.59;100.00
25944;BME280;13742;49.306;8.636;2023-03-09T05:09:14;98567.95;;;9.60;100.00
25944;BME280;13742;49.306;8.636;2023-03-09T05:10:14;98568.05;;;9.60;100.00
25944;BME280;13742;49.306;8.636;2023-03-09T05:11:14;98567.17;;;9.61;100.00
25944;BME280;13742;49.306;8.636;2023-03-09T05:12:14;98570.63;;;9.60;100.00
25944;BME280;13742;49.306;8.636;2023-03-09T05:13:14;98572.18;;;9.61;100.00
25944;BME280;13742;49.306;8.636;2023-03-09T05:14:14;98568.06;;;9.61;100.00
25944;BME280;13742;49.306;8.636;2023-03-09T05:15:14;98572.66;;;9.60;100.00
25944;BME280;13742;49.306;8.636;2023-03-09T05:16:14;98574.86;;;9.61;100.00
25944;BME280;13742;49.306;8.636;2023-03-09T05:17:14;98573.27;;;9.61;100.00
25944;BME280;13742;49.306;8.636;2023-03-09T05:18:14;98572.13;;;9.61;100.00
25944;BME280;13742;49.306;8.636;2023-03-09T05:19:14;98574.09;;;9.61;100.00
25944;BME280;13742;49.306;8.636;2023-03-09T05:20:14;98581.80;;;9.62;100.00
25944;BME280;13742;49.306;8.636;2023-03-09T05:21:14;98578.37;;;9.60;100.00
25944;BME280;13742;49.306;8.636;2023-03-09T05:22:14;98578.49;;;9.60;100.00
25944;BME280;13742;49.306;8.636;2023-03-09T05:23:14;98580.47;;;9.60;100.00
25944;BME280;13742;49.306;8.636;2023-03-09T05:24:14;98581.02;;;9.59;100.00
25944;BME280;13742;49.306;8.636;2023-03-09T05:25:14;98586.28;;;9.59;100.00
25944;BME280;13742;49.306;8.636;2023-03-09T05:26:14;98584.75;;;9.58;100.00
25944;BME280;13742;49.306;8.636;2023-03-09T05:27:14;98587.45;;;9.57;100.00
25944;BME280;13742;49.306;8.636;2023-03-09T05:28:14;98588.38;;;9.56;100.00
25944;BME280;13742;49.306;8.636;2023-03-09T05:29:14;98590.13;;;9.58;100.00